Time;durP1;ratioP1;P1;durP2;ratioP2;P2;SDS_P1;SDS_P2;PMS_P1;PMS_P2;Temp;Humidity;BMP_temperature;BMP_pressure;BME280_temperature;BME280_humidity;BME280_pressure;Samples;Min_cycle;Max_cycle;Signal;HPM_P1;HPM_P2
2022/09/18 00:01:30;;;;;;;1.57;1.47;;;;;8.50;96040.00;;;;5097972;28;20202;-71
2022/09/18 00:03:59;;;;;;;0.80;0.80;;;;;8.50;96046.00;;;;5116008;28;20222;-71
2022/09/18 00:06:28;;;;;;;0.60;0.60;;;;;8.50;96048.00;;;;5097973;28;20544;-71
2022/09/18 00:08:57;;;;;;;0.67;0.67;;;;;8.50;96049.00;;;;5115957;28;20190;-71
2022/09/18 00:11:26;;;;;;;0.63;0.63;;;;;8.50;96055.00;;;;5115705;28;20204;-70
2022/09/18 00:13:53;;;;;;;0.50;0.50;;;;;8.40;96049.00;;;;5115585;28;20210;-72
2022/09/18 00:16:22;;;;;;;1.90;1.53;;;;;8.50;96057.00;;;;5115606;28;20503;-71
2022/09/18 00:18:51;;;;;;;0.90;0.90;;;;;8.40;96048.00;;;;5097881;28;20661;-71
2022/09/18 00:21:20;;;;;;;0.60;0.60;;;;;8.50;96051.00;;;;5115465;28;20218;-71
2022/09/18 00:23:47;;;;;;;0.60;0.60;;;;;8.40;96056.00;;;;5115651;28;20617;-71
2022/09/18 00:26:17;;;;;;;0.87;0.87;;;;;8.40;96070.00;;;;5115832;28;20182;-70
2022/09/18 00:28:44;;;;;;;0.60;0.60;;;;;8.40;96053.00;;;;5098440;28;20259;-70
2022/09/18 00:31:14;;;;;;;0.73;0.73;;;;;8.40;96052.00;;;;5116159;28;20625;-70
2022/09/18 00:33:41;;;;;;;0.80;0.80;;;;;8.40;96063.00;;;;5115369;28;20225;-70
2022/09/18 00:36:11;;;;;;;0.60;0.60;;;;;8.20;96061.00;;;;5115143;28;20201;-70
2022/09/18 00:38:41;;;;;;;0.60;0.60;;;;;8.40;96065.00;;;;5115055;28;20217;-70
2022/09/18 00:41:14;;;;;;;0.60;0.60;;;;;8.40;96069.00;;;;5115221;28;20193;-70
2022/09/18 00:43:41;;;;;;;1.87;1.77;;;;;8.40;96056.00;;;;5097697;28;20650;-71
2022/09/18 00:46:17;;;;;;;0.60;0.60;;;;;8.30;96068.00;;;;5115100;28;20208;-70
2022/09/18 00:48:52;;;;;;;0.50;0.50;;;;;8.30;96063.00;;;;5115154;28;20213;-70
2022/09/18 00:51:21;;;;;;;1.37;1.37;;;;;8.30;96053.00;;;;5097009;28;20506;-70
2022/09/18 00:53:54;;;;;;;0.60;0.60;;;;;8.30;96049.00;;;;5114793;28;20225;-70
2022/09/18 00:56:24;;;;;;;0.60;0.60;;;;;8.40;96044.00;;;;5116644;28;20223;-72
2022/09/18 00:58:52;;;;;;;1.37;1.10;;;;;8.30;96052.00;;;;5115574;28;20258;-70
2022/09/18 01:01:18;;;;;;;0.60;0.60;;;;;8.40;96053.00;;;;5115108;28;20241;-70
2022/09/18 01:03:45;;;;;;;0.60;0.60;;;;;8.30;96053.00;;;;5114947;28;20217;-71
2022/09/18 01:06:15;;;;;;;1.13;1.13;;;;;8.40;96039.00;;;;5114866;28;20218;-71
2022/09/18 01:08:54;;;;;;;0.60;0.60;;;;;8.30;96034.00;;;;5096708;28;20633;-70
2022/09/18 01:11:31;;;;;;;0.80;0.80;;;;;8.30;96055.00;;;;5114555;28;20265;-70
2022/09/18 01:14:15;;;;;;;0.70;0.70;;;;;8.20;96051.00;;;;5114532;28;20205;-71
2022/09/18 01:16:51;;;;;;;8.47;1.33;;;;;8.20;96051.00;;;;5114522;28;20321;-70
2022/09/18 01:19:47;;;;;;;0.70;0.70;;;;;8.20;96055.00;;;;5114488;28;20194;-69
2022/09/18 01:22:24;;;;;;;0.80;0.80;;;;;8.40;96050.00;;;;5114456;28;20389;-70
2022/09/18 01:25:06;;;;;;;0.80;0.80;;;;;8.20;96050.00;;;;5096416;28;20208;-70
2022/09/18 01:27:40;;;;;;;0.60;0.60;;;;;8.10;96047.00;;;;5114586;28;20194;-70
2022/09/18 01:30:11;;;;;;;0.50;0.50;;;;;8.20;96040.00;;;;5114402;28;20200;-70
2022/09/18 01:32:40;;;;;;;0.53;0.53;;;;;8.20;96041.00;;;;5114279;28;20587;-69
2022/09/18 01:35:15;;;;;;;0.50;0.50;;;;;8.10;96038.00;;;;5114212;28;20305;-69
2022/09/18 01:37:49;;;;;;;0.50;0.50;;;;;8.20;96037.00;;;;5114257;28;20244;-69
2022/09/18 01:40:20;;;;;;;1.50;1.40;;;;;8.10;96040.00;;;;5114201;28;20220;-69
2022/09/18 01:42:49;;;;;;;0.50;0.50;;;;;8.00;96033.00;;;;5114301;28;20214;-69
2022/09/18 01:45:22;;;;;;;0.60;0.60;;;;;8.00;96034.00;;;;5114168;28;20218;-67
2022/09/18 01:47:53;;;;;;;0.70;0.70;;;;;8.10;96032.00;;;;5096351;28;20271;-66
2022/09/18 01:50:20;;;;;;;0.50;0.50;;;;;8.00;96027.00;;;;5114282;28;20216;-68
2022/09/18 01:52:53;;;;;;;0.50;0.50;;;;;7.80;96028.00;;;;5114286;28;20288;-70
2022/09/18 01:55:25;;;;;;;0.93;0.93;;;;;7.80;96033.00;;;;5096152;28;20198;-70
2022/09/18 01:57:59;;;;;;;0.83;0.83;;;;;7.90;96035.00;;;;5113969;28;20298;-70
2022/09/18 02:00:29;;;;;;;0.77;0.77;;;;;8.00;96027.00;;;;5096171;28;20221;-66
2022/09/18 02:03:02;;;;;;;1.23;1.13;;;;;8.00;96028.00;;;;5113784;28;20264;-70
2022/09/18 02:05:34;;;;;;;0.50;0.50;;;;;8.20;96037.00;;;;5113041;28;20196;-70
2022/09/18 02:08:10;;;;;;;0.60;0.60;;;;;8.10;96032.00;;;;5113869;28;20285;-71
2022/09/18 02:10:41;;;;;;;0.60;0.60;;;;;8.10;96033.00;;;;5113938;28;20630;-69
2022/09/18 02:13:10;;;;;;;0.60;0.60;;;;;8.00;96025.00;;;;5113998;28;20243;-70
2022/09/18 02:15:40;;;;;;;0.60;0.60;;;;;8.20;96031.00;;;;5113766;28;20209;-69
2022/09/18 02:18:10;;;;;;;0.70;0.70;;;;;8.00;96022.00;;;;5113725;28;20262;-69
2022/09/18 02:20:40;;;;;;;0.60;0.60;;;;;8.10;96026.00;;;;5113725;28;20637;-69
2022/09/18 02:23:08;;;;;;;0.60;0.60;;;;;8.20;96016.00;;;;5113552;28;20677;-69
2022/09/18 02:25:42;;;;;;;0.60;0.60;;;;;8.20;96017.00;;;;5114504;28;20222;-70
2022/09/18 02:28:10;;;;;;;0.60;0.60;;;;;8.10;96020.00;;;;5114398;28;20186;-69
2022/09/18 02:30:38;;;;;;;0.60;0.60;;;;;7.90;96015.00;;;;5113597;28;20225;-68
2022/09/18 02:33:23;;;;;;;0.80;0.80;;;;;8.00;96020.00;;;;5113897;28;20224;-70
2022/09/18 02:36:04;;;;;;;0.50;0.50;;;;;8.00;96024.00;;;;5113377;28;20231;-69
2022/09/18 02:38:35;;;;;;;0.87;0.87;;;;;8.00;96019.00;;;;5113563;28;20189;-69
2022/09/18 02:41:18;;;;;;;1.60;1.47;;;;;8.10;96027.00;;;;5113387;28;20295;-69
2022/09/18 02:43:52;;;;;;;0.60;0.60;;;;;8.00;96022.00;;;;5113598;28;20226;-69
2022/09/18 02:46:25;;;;;;;1.17;1.17;;;;;8.00;96019.00;;;;5113246;28;20197;-69
2022/09/18 02:49:05;;;;;;;0.60;0.60;;;;;7.90;96023.00;;;;5113580;28;20284;-66
2022/09/18 02:51:42;;;;;;;0.93;0.93;;;;;8.10;96020.00;;;;5113551;28;20205;-69
2022/09/18 02:54:12;;;;;;;0.83;0.83;;;;;8.10;96011.00;;;;5113297;28;20193;-69
2022/09/18 02:56:45;;;;;;;0.60;0.60;;;;;8.20;96016.00;;;;5113311;28;20320;-70
2022/09/18 02:59:15;;;;;;;1.10;1.10;;;;;8.10;96023.00;;;;5113216;28;20210;-69
2022/09/18 03:01:44;;;;;;;0.50;0.50;;;;;8.20;96027.00;;;;5113885;28;20574;-72
2022/09/18 03:04:13;;;;;;;0.70;0.70;;;;;8.20;96021.00;;;;5112989;28;20236;-67
2022/09/18 03:06:40;;;;;;;0.60;0.60;;;;;8.20;96022.00;;;;5113239;28;20280;-71
2022/09/18 03:09:07;;;;;;;0.63;0.63;;;;;8.10;96016.00;;;;5117165;28;20221;-71
2022/09/18 03:11:35;;;;;;;0.70;0.70;;;;;8.20;96013.00;;;;5113118;28;20332;-72
2022/09/18 03:14:02;;;;;;;0.60;0.60;;;;;8.20;96018.00;;;;5113209;28;20221;-71
2022/09/18 03:16:29;;;;;;;0.60;0.60;;;;;8.20;96009.00;;;;5114601;28;20292;-71
2022/09/18 03:18:56;;;;;;;0.60;0.60;;;;;8.10;96003.00;;;;5118440;28;20209;-71
2022/09/18 03:21:23;;;;;;;0.93;0.70;;;;;8.10;95991.00;;;;5116364;28;20240;-70
2022/09/18 03:23:50;;;;;;;0.50;0.50;;;;;8.20;96007.00;;;;5116310;28;20222;-71
2022/09/18 03:26:17;;;;;;;0.50;0.50;;;;;8.20;95998.00;;;;5116205;28;20224;-71
2022/09/18 03:28:44;;;;;;;0.50;0.50;;;;;8.10;95991.00;;;;5116280;28;20194;-71
2022/09/18 03:31:11;;;;;;;0.50;0.50;;;;;8.00;95987.00;;;;5116081;28;20259;-72
2022/09/18 03:33:38;;;;;;;0.50;0.50;;;;;8.10;95999.00;;;;5116579;28;20210;-70
2022/09/18 03:36:06;;;;;;;0.60;0.60;;;;;8.20;96002.00;;;;5116260;28;20197;-70
2022/09/18 03:38:33;;;;;;;0.50;0.50;;;;;8.10;96001.00;;;;5116267;28;20197;-70
2022/09/18 03:40:59;;;;;;;1.17;1.03;;;;;8.10;96003.00;;;;5116227;28;20186;-70
2022/09/18 03:43:26;;;;;;;0.53;0.53;;;;;8.10;96006.00;;;;5115875;28;20302;-70
2022/09/18 03:45:53;;;;;;;0.60;0.60;;;;;8.20;95996.00;;;;5116141;28;20201;-70
2022/09/18 03:48:20;;;;;;;0.60;0.60;;;;;8.30;96001.00;;;;5115960;28;20304;-70
2022/09/18 03:50:48;;;;;;;0.77;0.77;;;;;8.20;96004.00;;;;5116061;28;20201;-71
2022/09/18 03:53:15;;;;;;;0.60;0.60;;;;;8.30;96008.00;;;;5116084;28;20206;-71
2022/09/18 03:55:42;;;;;;;0.70;0.70;;;;;8.30;96011.00;;;;5097830;28;20777;-70
2022/09/18 03:58:11;;;;;;;0.60;0.60;;;;;8.40;96015.00;;;;5098173;28;20247;-70
2022/09/18 04:00:38;;;;;;;0.53;0.53;;;;;8.30;96015.00;;;;5115854;28;20213;-70
2022/09/18 04:03:08;;;;;;;0.73;0.73;;;;;8.30;96012.00;;;;5115608;28;20382;-70
2022/09/18 04:05:34;;;;;;;0.60;0.60;;;;;8.30;96009.00;;;;5115607;28;20217;-70
2022/09/18 04:08:04;;;;;;;1.00;1.00;;;;;8.20;96010.00;;;;5115745;28;20230;-70
2022/09/18 04:10:32;;;;;;;0.60;0.60;;;;;8.10;96010.00;;;;5115661;28;20228;-70
2022/09/18 04:12:58;;;;;;;1.00;1.00;;;;;8.20;96027.00;;;;5115716;28;20215;-71
2022/09/18 04:15:28;;;;;;;0.50;0.50;;;;;8.20;96020.00;;;;5115704;28;20194;-70
2022/09/18 04:17:54;;;;;;;0.70;0.70;;;;;8.20;96024.00;;;;5115621;28;20271;-70
2022/09/18 04:20:21;;;;;;;0.60;0.60;;;;;8.30;96020.00;;;;5097664;28;20213;-70
2022/09/18 04:22:50;;;;;;;0.70;0.70;;;;;8.20;96029.00;;;;5115631;28;20284;-70
2022/09/18 04:25:19;;;;;;;0.60;0.60;;;;;8.30;96030.00;;;;5115412;28;20198;-71
2022/09/18 04:27:47;;;;;;;0.90;0.90;;;;;8.30;96032.00;;;;5115260;28;20289;-71
2022/09/18 04:30:14;;;;;;;0.50;0.50;;;;;8.30;96034.00;;;;5114420;28;20186;-69
2022/09/18 04:32:42;;;;;;;0.63;0.63;;;;;8.20;96030.00;;;;5097432;28;20210;-69
2022/09/18 04:35:09;;;;;;;3.20;1.90;;;;;8.20;96033.00;;;;5115375;28;20219;-70
2022/09/18 04:37:36;;;;;;;0.60;0.60;;;;;8.20;96031.00;;;;5115293;28;20621;-70
2022/09/18 04:40:04;;;;;;;0.80;0.80;;;;;8.30;96028.00;;;;5115280;28;20245;-70
2022/09/18 04:42:31;;;;;;;0.60;0.60;;;;;8.30;96028.00;;;;5115315;28;20235;-71
2022/09/18 04:44:58;;;;;;;0.83;0.83;;;;;8.30;96038.00;;;;5115161;28;20278;-69
2022/09/18 04:47:25;;;;;;;0.80;0.80;;;;;8.30;96024.00;;;;5115200;28;20205;-67
2022/09/18 04:49:52;;;;;;;0.50;0.50;;;;;8.20;96024.00;;;;5115087;28;20221;-68
2022/09/18 04:52:19;;;;;;;0.60;0.60;;;;;8.10;96028.00;;;;5097095;28;20288;-68
2022/09/18 04:54:48;;;;;;;0.50;0.50;;;;;8.10;96016.00;;;;5115031;28;20201;-69
2022/09/18 04:57:15;;;;;;;0.60;0.60;;;;;8.10;96009.00;;;;5097303;28;20194;-70
2022/09/18 04:59:42;;;;;;;0.80;0.80;;;;;8.10;96008.00;;;;5114999;28;20186;-69
2022/09/18 05:02:09;;;;;;;0.60;0.60;;;;;8.10;96005.00;;;;5114852;28;20671;-69
2022/09/18 05:04:36;;;;;;;0.60;0.60;;;;;8.20;96025.00;;;;5115008;28;20194;-70
2022/09/18 05:07:05;;;;;;;0.57;0.57;;;;;8.20;96012.00;;;;5114832;28;20239;-67
2022/09/18 05:09:32;;;;;;;0.60;0.60;;;;;8.10;96011.00;;;;5096844;28;20214;-69
2022/09/18 05:11:59;;;;;;;0.70;0.70;;;;;8.20;96013.00;;;;5114761;28;20286;-68
2022/09/18 05:14:26;;;;;;;0.67;0.67;;;;;8.10;96007.00;;;;5114882;28;20647;-71
2022/09/18 05:16:53;;;;;;;0.60;0.60;;;;;8.00;96014.00;;;;5114868;28;20621;-71
2022/09/18 05:19:21;;;;;;;0.50;0.50;;;;;8.20;96023.00;;;;5114743;28;20222;-71
2022/09/18 05:21:49;;;;;;;0.70;0.70;;;;;8.10;96029.00;;;;5114688;28;20197;-69
2022/09/18 05:24:16;;;;;;;0.50;0.50;;;;;8.20;96028.00;;;;5096828;28;20237;-70
2022/09/18 05:26:43;;;;;;;0.57;0.57;;;;;8.00;96028.00;;;;5114671;28;20189;-71
2022/09/18 05:29:10;;;;;;;0.60;0.60;;;;;8.10;96027.00;;;;5114552;28;20687;-69
2022/09/18 05:31:37;;;;;;;0.63;0.63;;;;;8.20;96026.00;;;;5096763;28;20713;-70
2022/09/18 05:34:03;;;;;;;0.90;0.90;;;;;8.20;96039.00;;;;5114459;28;20239;-69
2022/09/18 05:36:31;;;;;;;0.50;0.50;;;;;8.10;96031.00;;;;5114539;28;20204;-67
2022/09/18 05:38:58;;;;;;;1.00;1.00;;;;;8.10;96036.00;;;;5114473;28;20198;-70
2022/09/18 05:41:24;;;;;;;2.00;1.57;;;;;8.20;96044.00;;;;5114268;28;20240;-68
2022/09/18 05:43:53;;;;;;;0.60;0.60;;;;;8.10;96034.00;;;;5114309;28;20213;-70
2022/09/18 05:46:20;;;;;;;0.80;0.80;;;;;8.20;96035.00;;;;5114267;28;20235;-70
2022/09/18 05:48:48;;;;;;;1.47;1.37;;;;;8.20;96050.00;;;;5114433;28;20217;-71
2022/09/18 05:51:15;;;;;;;0.50;0.50;;;;;8.20;96041.00;;;;5114295;28;20301;-70
2022/09/18 05:53:47;;;;;;;0.70;0.70;;;;;8.20;96045.00;;;;5114344;28;20206;-70
2022/09/18 05:56:14;;;;;;;0.57;0.57;;;;;8.30;96044.00;;;;5096503;28;20212;-70
2022/09/18 05:58:41;;;;;;;0.70;0.70;;;;;8.30;96037.00;;;;5114148;28;20197;-69
2022/09/18 06:01:13;;;;;;;0.70;0.70;;;;;8.40;96030.00;;;;5096681;28;20201;-66
2022/09/18 06:03:40;;;;;;;0.50;0.50;;;;;8.30;96031.00;;;;5114207;28;20221;-70
2022/09/18 06:06:07;;;;;;;0.60;0.60;;;;;8.30;96030.00;;;;5115288;28;20198;-70
2022/09/18 06:08:36;;;;;;;0.60;0.60;;;;;8.30;96033.00;;;;5115819;28;20210;-71
2022/09/18 06:11:04;;;;;;;0.67;0.67;;;;;8.30;96037.00;;;;5114618;28;20277;-70
2022/09/18 06:13:33;;;;;;;0.70;0.70;;;;;8.50;96040.00;;;;5113973;28;20234;-70
2022/09/18 06:16:00;;;;;;;0.60;0.60;;;;;8.50;96038.00;;;;5114010;28;20256;-70
2022/09/18 06:18:27;;;;;;;0.50;0.50;;;;;8.60;96041.00;;;;5113927;28;20194;-70
2022/09/18 06:20:56;;;;;;;0.60;0.60;;;;;8.60;96050.00;;;;5113877;28;20190;-67
2022/09/18 06:23:24;;;;;;;0.70;0.70;;;;;8.60;96046.00;;;;5113732;28;20232;-70
2022/09/18 06:25:57;;;;;;;0.50;0.50;;;;;8.60;96046.00;;;;5113703;28;20221;-69
2022/09/18 06:28:25;;;;;;;0.60;0.60;;;;;8.60;96055.00;;;;5095945;28;20201;-68
2022/09/18 06:30:52;;;;;;;0.53;0.53;;;;;8.60;96054.00;;;;5113707;28;20661;-69
2022/09/18 06:33:18;;;;;;;0.80;0.80;;;;;8.50;96055.00;;;;5113731;28;20277;-68
2022/09/18 06:35:48;;;;;;;0.77;0.77;;;;;8.60;96055.00;;;;5113663;28;20211;-71
2022/09/18 06:38:15;;;;;;;0.60;0.60;;;;;8.50;96050.00;;;;5113757;28;20193;-71
2022/09/18 06:40:48;;;;;;;0.60;0.60;;;;;8.50;96059.00;;;;5113592;28;20255;-70
2022/09/18 06:43:15;;;;;;;0.63;0.63;;;;;8.70;96050.00;;;;5113671;28;20591;-70
2022/09/18 06:45:43;;;;;;;0.87;0.87;;;;;8.70;96056.00;;;;5113777;28;20521;-71
2022/09/18 06:48:09;;;;;;;0.70;0.70;;;;;8.80;96055.00;;;;5113658;28;20660;-70
2022/09/18 06:50:36;;;;;;;0.60;0.60;;;;;8.80;96064.00;;;;5113622;28;20289;-70
2022/09/18 06:53:04;;;;;;;0.60;0.60;;;;;8.80;96059.00;;;;5097777;28;20252;-72
2022/09/18 06:55:31;;;;;;;0.67;0.67;;;;;8.90;96060.00;;;;5117092;28;20202;-71
2022/09/18 06:57:59;;;;;;;0.50;0.50;;;;;8.80;96058.00;;;;5117063;28;20198;-68
2022/09/18 07:00:26;;;;;;;0.50;0.50;;;;;8.80;96062.00;;;;5117132;28;20209;-71
2022/09/18 07:02:58;;;;;;;0.60;0.60;;;;;8.90;96065.00;;;;5116901;28;20646;-71
2022/09/18 07:05:26;;;;;;;0.53;0.53;;;;;8.70;96066.00;;;;5116904;28;20209;-66
2022/09/18 07:07:53;;;;;;;0.50;0.50;;;;;8.80;96064.00;;;;5098838;28;20251;-70
2022/09/18 07:10:20;;;;;;;0.60;0.60;;;;;8.80;96062.00;;;;5116659;28;20213;-71
2022/09/18 07:12:54;;;;;;;0.53;0.53;;;;;8.90;96071.00;;;;5116711;28;20297;-73
2022/09/18 07:15:20;;;;;;;0.60;0.60;;;;;8.70;96069.00;;;;5098743;28;20228;-69
2022/09/18 07:17:47;;;;;;;0.70;0.70;;;;;8.70;96066.00;;;;5116685;28;20231;-70
2022/09/18 07:20:15;;;;;;;0.60;0.60;;;;;8.70;96069.00;;;;5116650;28;20227;-71
2022/09/18 07:22:42;;;;;;;0.60;0.60;;;;;8.70;96065.00;;;;5116437;28;20665;-68
2022/09/18 07:25:09;;;;;;;1.00;1.00;;;;;8.70;96064.00;;;;5116594;28;20468;-70
2022/09/18 07:27:36;;;;;;;0.73;0.73;;;;;8.80;96070.00;;;;5116421;28;20214;-67
2022/09/18 07:30:04;;;;;;;0.60;0.60;;;;;8.70;96082.00;;;;5116658;28;20210;-68
2022/09/18 07:32:31;;;;;;;0.60;0.60;;;;;8.70;96076.00;;;;5116470;28;20641;-71
2022/09/18 07:34:57;;;;;;;0.70;0.70;;;;;8.80;96080.00;;;;5116504;28;20193;-69
2022/09/18 07:37:25;;;;;;;0.60;0.60;;;;;8.90;96078.00;;;;5116290;28;20217;-70
2022/09/18 07:39:52;;;;;;;0.63;0.63;;;;;8.80;96076.00;;;;5116539;28;20284;-68
2022/09/18 07:42:19;;;;;;;0.50;0.50;;;;;8.80;96080.00;;;;5116045;28;20200;-68
2022/09/18 07:44:46;;;;;;;0.70;0.70;;;;;8.80;96079.00;;;;5116380;28;20190;-72
2022/09/18 07:47:13;;;;;;;0.60;0.60;;;;;8.90;96082.00;;;;5116191;28;20194;-71
2022/09/18 07:49:40;;;;;;;0.90;0.90;;;;;9.00;96087.00;;;;5116166;28;20222;-71
2022/09/18 07:52:06;;;;;;;0.60;0.60;;;;;8.90;96087.00;;;;5116261;28;20272;-71
2022/09/18 07:54:35;;;;;;;0.73;0.73;;;;;8.90;96086.00;;;;5115925;28;20225;-70
2022/09/18 07:57:02;;;;;;;0.73;0.73;;;;;8.90;96095.00;;;;5115876;28;20186;-69
2022/09/18 07:59:29;;;;;;;0.83;0.83;;;;;9.20;96084.00;;;;5115808;28;20200;-70
2022/09/18 08:01:56;;;;;;;0.70;0.70;;;;;9.40;96078.00;;;;5115977;28;20285;-69
2022/09/18 08:04:23;;;;;;;0.60;0.60;;;;;9.30;96080.00;;;;5096762;28;20218;-72
2022/09/18 08:06:54;;;;;;;0.60;0.60;;;;;9.20;96092.00;;;;5115894;28;20202;-68
2022/09/18 08:09:21;;;;;;;0.90;0.90;;;;;9.50;96091.00;;;;5097956;28;20198;-71
2022/09/18 08:11:52;;;;;;;1.57;1.47;;;;;9.60;96101.00;;;;5115848;28;20301;-71
2022/09/18 08:14:19;;;;;;;0.60;0.60;;;;;9.60;96100.00;;;;5115713;28;20299;-71
2022/09/18 08:16:46;;;;;;;0.60;0.60;;;;;9.70;96094.00;;;;5115549;28;20688;-71
2022/09/18 08:19:13;;;;;;;0.60;0.60;;;;;9.50;96097.00;;;;5115727;28;20185;-70
2022/09/18 08:21:40;;;;;;;0.80;0.80;;;;;9.60;96101.00;;;;5115580;28;20194;-70
2022/09/18 08:24:07;;;;;;;0.50;0.50;;;;;9.50;96105.00;;;;5115492;28;20233;-70
2022/09/18 08:26:37;;;;;;;0.60;0.60;;;;;9.40;96105.00;;;;5115486;28;20195;-68
2022/09/18 08:29:05;;;;;;;0.63;0.63;;;;;9.50;96106.00;;;;5115586;28;20222;-71
2022/09/18 08:31:32;;;;;;;0.60;0.60;;;;;9.60;96107.00;;;;5115401;28;20186;-71
2022/09/18 08:33:59;;;;;;;0.60;0.60;;;;;9.60;96107.00;;;;5115250;28;20316;-71
2022/09/18 08:36:26;;;;;;;0.77;0.77;;;;;9.60;96110.00;;;;5115435;28;20194;-72
2022/09/18 08:38:53;;;;;;;0.80;0.80;;;;;9.60;96119.00;;;;5115318;28;20194;-70
2022/09/18 08:41:35;;;;;;;0.50;0.50;;;;;9.60;96110.00;;;;5115185;28;20209;-69
2022/09/18 08:44:09;;;;;;;0.73;0.73;;;;;9.60;96099.00;;;;5115084;28;20232;-70
2022/09/18 08:46:41;;;;;;;0.83;0.83;;;;;9.70;96103.00;;;;5115153;28;20197;-70
2022/09/18 08:49:22;;;;;;;0.83;0.83;;;;;9.70;96102.00;;;;5115076;28;20217;-70
2022/09/18 08:51:54;;;;;;;1.03;1.00;;;;;9.90;96105.00;;;;5118921;28;20220;-71
2022/09/18 08:54:38;;;;;;;0.70;0.70;;;;;9.90;96104.00;;;;5118347;28;20285;-69
2022/09/18 08:57:13;;;;;;;0.70;0.70;;;;;9.90;96113.00;;;;5127117;28;20275;-70
2022/09/18 08:59:44;;;;;;;0.70;0.70;;;;;9.70;96112.00;;;;5115446;28;20606;-71
2022/09/18 09:02:32;;;;;;;0.87;0.87;;;;;9.50;96110.00;;;;5115113;28;20217;-71
2022/09/18 09:05:02;;;;;;;1.17;1.17;;;;;9.80;96114.00;;;;5114872;28;20193;-71
2022/09/18 09:07:53;;;;;;;0.53;0.53;;;;;10.00;96108.00;;;;5114649;28;20222;-71
2022/09/18 09:10:36;;;;;;;0.70;0.70;;;;;10.30;96113.00;;;;5114773;28;20202;-72
2022/09/18 09:13:36;;;;;;;8.00;0.93;;;;;10.20;96115.00;;;;5114621;28;20225;-72
2022/09/18 09:16:15;;;;;;;0.50;0.50;;;;;10.40;96115.00;;;;5074153;28;20221;-66
2022/09/18 09:18:56;;;;;;;3.70;1.30;;;;;10.50;96120.00;;;;5114711;28;20254;-70
2022/09/18 09:21:44;;;;;;;0.60;0.60;;;;;10.70;96113.00;;;;5114545;28;20225;-70
2022/09/18 09:24:32;;;;;;;0.60;0.60;;;;;10.80;96105.00;;;;5114389;28;20225;-70
2022/09/18 09:27:05;;;;;;;0.70;0.70;;;;;10.90;96108.00;;;;5092453;28;20561;-70
2022/09/18 09:29:34;;;;;;;0.50;0.50;;;;;11.00;96103.00;;;;5114447;28;20213;-70
2022/09/18 09:32:12;;;;;;;0.77;0.77;;;;;11.00;96103.00;;;;5114816;28;20194;-70
2022/09/18 09:34:44;;;;;;;0.80;0.80;;;;;10.90;96100.00;;;;5114619;28;20533;-70
2022/09/18 09:37:16;;;;;;;1.17;1.17;;;;;11.10;96107.00;;;;5114997;28;20294;-70
2022/09/18 09:39:49;;;;;;;0.60;0.60;;;;;11.20;96115.00;;;;5114369;28;20614;-68
2022/09/18 09:42:24;;;;;;;0.93;0.93;;;;;11.70;96104.00;;;;5114208;28;20656;-70
2022/09/18 09:45:00;;;;;;;0.60;0.60;;;;;11.50;96096.00;;;;5114186;28;20602;-71
2022/09/18 09:47:33;;;;;;;0.93;0.93;;;;;11.60;96102.00;;;;5114249;28;20629;-70
2022/09/18 09:50:15;;;;;;;0.60;0.60;;;;;11.40;96105.00;;;;5114117;28;20210;-69
2022/09/18 09:52:45;;;;;;;0.70;0.70;;;;;11.70;96106.00;;;;5114100;28;20202;-69
2022/09/18 09:55:21;;;;;;;0.50;0.50;;;;;11.50;96097.00;;;;5095994;28;20275;-72
2022/09/18 09:57:57;;;;;;;0.50;0.50;;;;;11.70;96103.00;;;;5114060;28;20189;-69
2022/09/18 10:00:24;;;;;;;0.60;0.60;;;;;12.10;96090.00;;;;5113888;28;20206;-69
2022/09/18 10:03:24;;;;;;;0.70;0.70;;;;;11.90;96088.00;;;;5095849;28;20309;-67
2022/09/18 10:05:58;;;;;;;0.60;0.60;;;;;11.80;96096.00;;;;5113833;28;20218;-71
2022/09/18 10:08:32;;;;;;;0.83;0.83;;;;;11.80;96096.00;;;;5113868;28;20229;-69
2022/09/18 10:11:07;;;;;;;0.50;0.50;;;;;12.20;96075.00;;;;5095844;28;20221;-68
2022/09/18 10:13:39;;;;;;;1.13;1.13;;;;;12.10;96075.00;;;;5114046;28;20720;-69
2022/09/18 10:16:11;;;;;;;1.43;1.33;;;;;12.20;96079.00;;;;5113763;28;20232;-71
2022/09/18 10:18:42;;;;;;;0.43;0.43;;;;;12.10;96096.00;;;;5113933;28;20273;-68
2022/09/18 10:21:12;;;;;;;0.50;0.50;;;;;11.90;96090.00;;;;5095968;28;20220;-71
2022/09/18 10:23:40;;;;;;;0.90;0.90;;;;;11.80;96096.00;;;;5113676;28;20225;-69
2022/09/18 10:26:13;;;;;;;0.53;0.53;;;;;11.80;96096.00;;;;5113320;28;20229;-69
2022/09/18 10:28:40;;;;;;;15.10;0.90;;;;;12.20;96075.00;;;;5113393;28;20194;-69
2022/09/18 10:31:11;;;;;;;0.50;0.50;;;;;12.40;96081.00;;;;5113625;28;20641;-70
2022/09/18 10:33:41;;;;;;;0.50;0.50;;;;;12.50;96077.00;;;;5113808;28;20580;-71
2022/09/18 10:36:24;;;;;;;0.50;0.50;;;;;13.20;96079.00;;;;5113549;28;20744;-71
2022/09/18 10:38:52;;;;;;;1.30;1.20;;;;;12.50;96085.00;;;;5113661;28;20201;-71
2022/09/18 10:41:28;;;;;;;1.03;1.00;;;;;12.60;96078.00;;;;5095750;28;20628;-71
2022/09/18 10:43:58;;;;;;;0.70;0.70;;;;;12.70;96056.00;;;;5113592;28;20225;-71
2022/09/18 10:46:31;;;;;;;0.60;0.60;;;;;12.60;96067.00;;;;5113541;28;20217;-72
2022/09/18 10:49:16;;;;;;;0.57;0.57;;;;;12.10;96061.00;;;;5095495;28;20316;-68
2022/09/18 10:51:43;;;;;;;0.50;0.50;;;;;12.40;96066.00;;;;5113582;28;20198;-70
2022/09/18 10:54:17;;;;;;;1.40;0.77;;;;;12.50;96070.00;;;;5113380;28;20225;-70
2022/09/18 10:56:43;;;;;;;1.37;1.27;;;;;12.50;96082.00;;;;5113775;28;20261;-71
2022/09/18 10:59:34;;;;;;;0.50;0.50;;;;;12.20;96071.00;;;;5113283;28;20245;-72
2022/09/18 11:02:05;;;;;;;0.50;0.50;;;;;12.20;96075.00;;;;5113357;28;20410;-70
2022/09/18 11:04:35;;;;;;;0.60;0.60;;;;;12.00;96038.00;;;;5113199;28;20230;-71
2022/09/18 11:07:06;;;;;;;0.57;0.57;;;;;12.10;96051.00;;;;5113267;28;20217;-69
2022/09/18 11:09:37;;;;;;;0.57;0.57;;;;;12.50;96043.00;;;;5113323;28;20293;-70
2022/09/18 11:12:14;;;;;;;0.60;0.60;;;;;12.70;96050.00;;;;5113302;28;20190;-68
2022/09/18 11:14:45;;;;;;;0.60;0.60;;;;;12.80;96054.00;;;;5113292;28;20193;-71
2022/09/18 11:17:22;;;;;;;8.40;0.77;;;;;12.00;96059.00;;;;5113351;28;20190;-72
2022/09/18 11:19:51;;;;;;;0.60;0.60;;;;;12.00;96052.00;;;;5113373;28;20313;-73
2022/09/18 11:22:45;;;;;;;0.50;0.50;;;;;12.10;96059.00;;;;5113014;28;20229;-72
2022/09/18 11:25:21;;;;;;;2.43;1.10;;;;;12.20;96048.00;;;;5054589;28;20229;-72
2022/09/18 11:27:49;;;;;;;0.60;0.60;;;;;12.20;96078.00;;;;5112795;28;20308;-73
2022/09/18 11:30:21;;;;;;;0.50;0.50;;;;;12.10;96044.00;;;;5112884;28;20217;-74
2022/09/18 11:32:52;;;;;;;0.43;0.43;;;;;12.70;96042.00;;;;5112912;28;20217;-75
2022/09/18 11:35:21;;;;;;;0.60;0.60;;;;;12.70;96050.00;;;;5113115;28;20255;-72
2022/09/18 11:37:52;;;;;;;0.40;0.40;;;;;13.30;96040.00;;;;5095254;28;20226;-74
2022/09/18 11:40:22;;;;;;;0.70;0.70;;;;;13.10;96026.00;;;;5116636;28;20303;-70
2022/09/18 11:42:51;;;;;;;0.47;0.47;;;;;12.80;96036.00;;;;5117543;28;20224;-74
2022/09/18 11:45:34;;;;;;;0.50;0.50;;;;;13.00;96028.00;;;;5117097;28;20198;-74
2022/09/18 11:48:15;;;;;;;0.70;0.70;;;;;13.10;96030.00;;;;5116192;28;20229;-73
2022/09/18 11:50:43;;;;;;;0.63;0.63;;;;;12.80;96037.00;;;;5116304;28;20174;-74
2022/09/18 11:53:15;;;;;;;0.50;0.50;;;;;12.60;96036.00;;;;5116008;28;20250;-71
2022/09/18 11:55:46;;;;;;;0.40;0.40;;;;;12.60;96039.00;;;;5116155;28;20226;-73
2022/09/18 11:58:17;;;;;;;0.60;0.60;;;;;12.50;96040.00;;;;5116072;28;20202;-70
2022/09/18 12:00:48;;;;;;;0.73;0.73;;;;;12.50;96042.00;;;;5116102;28;20260;-73
2022/09/18 12:03:20;;;;;;;0.50;0.50;;;;;12.60;96014.00;;;;5098180;28;20214;-70
2022/09/18 12:05:53;;;;;;;0.60;0.60;;;;;12.90;96027.00;;;;5116153;28;20221;-72
2022/09/18 12:08:32;;;;;;;0.50;0.50;;;;;13.40;96005.00;;;;5116193;28;20701;-72
2022/09/18 12:11:11;;;;;;;0.80;0.80;;;;;13.70;96022.00;;;;5115940;28;20174;-73
2022/09/18 12:13:48;;;;;;;0.50;0.50;;;;;13.20;96010.00;;;;5115940;28;20251;-65
2022/09/18 12:16:21;;;;;;;0.60;0.60;;;;;13.70;96009.00;;;;5115936;28;20224;-73
2022/09/18 12:18:55;;;;;;;0.50;0.50;;;;;14.10;96019.00;;;;5115792;28;20208;-71
2022/09/18 12:21:33;;;;;;;0.50;0.50;;;;;13.80;96002.00;;;;5098163;28;20198;-71
2022/09/18 12:24:01;;;;;;;0.43;0.43;;;;;14.10;96011.00;;;;5115655;28;20213;-71
2022/09/18 12:26:38;;;;;;;0.57;0.57;;;;;13.90;95992.00;;;;5115702;28;20386;-73
2022/09/18 12:29:17;;;;;;;0.60;0.60;;;;;13.90;95999.00;;;;5115552;28;20680;-69
2022/09/18 12:31:55;;;;;;;1.17;1.17;;;;;13.80;96015.00;;;;5097606;28;20216;-73
2022/09/18 12:34:28;;;;;;;0.50;0.50;;;;;13.40;96022.00;;;;5115526;28;20672;-70
2022/09/18 12:37:11;;;;;;;0.60;0.60;;;;;13.70;96006.00;;;;5115663;28;20208;-69
2022/09/18 12:40:00;;;;;;;1.20;0.90;;;;;13.10;96023.00;;;;5115430;28;20225;-72
2022/09/18 12:42:39;;;;;;;0.50;0.50;;;;;13.20;96000.00;;;;5094467;28;20202;-73